Time;durP1;ratioP1;P1;durP2;ratioP2;P2;SDS_P1;SDS_P2;PMS_P1;PMS_P2;Temp;Humidity;BMP_temperature;BMP_pressure;BME280_temperature;BME280_humidity;BME280_pressure;Samples;Min_cycle;Max_cycle;Signal;HPM_P1;HPM_P2
2022/05/07 00:00:46;;;;;;;0.75;0.57;;;14.10;99.90;;;;;;5041742;28;20131;-61
2022/05/07 00:03:13;;;;;;;0.60;0.50;;;14.00;99.90;;;;;;5022904;28;20148;-62
2022/05/07 00:05:40;;;;;;;0.38;0.38;;;14.00;99.90;;;;;;5037127;28;20106;-59
2022/05/07 00:08:07;;;;;;;0.68;0.50;;;14.00;99.90;;;;;;5047494;28;20641;-58
2022/05/07 00:10:33;;;;;;;0.40;0.40;;;14.00;99.90;;;;;;5038346;28;20057;-58
2022/05/07 00:13:00;;;;;;;0.52;0.40;;;13.90;99.90;;;;;;5037374;28;20061;-58
2022/05/07 00:15:27;;;;;;;0.40;0.40;;;13.80;99.90;;;;;;5040740;28;20136;-59
2022/05/07 00:18:06;;;;;;;0.32;0.30;;;13.80;99.90;;;;;;5041757;28;20049;-58
2022/05/07 00:20:34;;;;;;;0.90;0.60;;;13.80;99.90;;;;;;5041016;28;20095;-59
2022/05/07 00:23:00;;;;;;;0.57;0.45;;;13.80;99.90;;;;;;5030955;28;20140;-57
2022/05/07 00:25:28;;;;;;;0.70;0.40;;;13.80;99.90;;;;;;5041233;28;20055;-58
2022/05/07 00:27:54;;;;;;;0.65;0.50;;;13.80;99.90;;;;;;5041311;28;20110;-58
2022/05/07 00:30:21;;;;;;;0.43;0.43;;;13.70;99.90;;;;;;5041269;28;20122;-58
2022/05/07 00:32:48;;;;;;;0.90;0.60;;;13.60;99.90;;;;;;5041774;28;20132;-59
2022/05/07 00:35:16;;;;;;;0.50;0.50;;;13.50;99.90;;;;;;5019033;28;20052;-60
2022/05/07 00:37:43;;;;;;;0.50;0.50;;;13.40;99.90;;;;;;5024887;28;20073;-60
2022/05/07 00:40:10;;;;;;;0.75;0.50;;;13.30;99.90;;;;;;5041392;28;20144;-60
2022/05/07 00:42:38;;;;;;;0.50;0.50;;;13.30;99.90;;;;;;5012088;28;20079;-59
2022/05/07 00:45:05;;;;;;;0.50;0.43;;;13.20;99.90;;;;;;5040967;28;20072;-58
2022/05/07 00:47:32;;;;;;;0.95;0.50;;;13.20;99.90;;;;;;5041469;28;20676;-60
2022/05/07 00:51:33;;;;;;;0.75;0.50;;;13.20;99.90;;;;;;5010816;28;20937;-60
2022/05/07 00:52:47;;;;;;;0.60;0.57;;;13.20;99.90;;;;;;5027173;28;20119;-60
2022/05/07 00:55:14;;;;;;;0.60;0.50;;;13.10;99.90;;;;;;5038197;28;20457;-58
2022/05/07 00:57:41;;;;;;;0.50;0.50;;;13.10;99.90;;;;;;5036318;28;20128;-58
2022/05/07 01:00:09;;;;;;;0.35;0.32;;;13.10;99.90;;;;;;5029261;28;20049;-58
2022/05/07 01:02:36;;;;;;;0.65;0.50;;;13.00;99.90;;;;;;5030759;28;20639;-59
2022/05/07 01:05:05;;;;;;;0.60;0.40;;;13.00;99.90;;;;;;5015590;28;20134;-59
2022/05/07 01:07:33;;;;;;;0.95;0.63;;;13.00;99.90;;;;;;5028484;28;20052;-59
2022/05/07 01:10:01;;;;;;;0.65;0.50;;;13.00;99.90;;;;;;5030756;28;20144;-59
2022/05/07 01:12:29;;;;;;;0.88;0.50;;;13.00;99.90;;;;;;5037300;28;20144;-58
2022/05/07 01:14:57;;;;;;;1.10;0.50;;;13.00;99.90;;;;;;5024963;28;20080;-58
2022/05/07 01:17:23;;;;;;;0.98;0.40;;;13.10;99.90;;;;;;5036807;28;20501;-58
2022/05/07 01:19:54;;;;;;;0.50;0.40;;;13.10;99.90;;;;;;5027241;28;21395;-59
2022/05/07 01:22:22;;;;;;;0.55;0.45;;;13.10;99.90;;;;;;5024567;28;20128;-58
2022/05/07 01:24:49;;;;;;;0.30;0.30;;;13.10;99.90;;;;;;5034828;28;20080;-58
2022/05/07 01:27:15;;;;;;;0.50;0.50;;;13.10;99.90;;;;;;5028061;28;20115;-58
2022/05/07 01:29:42;;;;;;;0.57;0.50;;;13.10;99.90;;;;;;5024173;28;20047;-60
2022/05/07 01:32:09;;;;;;;0.45;0.40;;;13.20;99.90;;;;;;5037534;28;20140;-59
2022/05/07 01:34:36;;;;;;;0.95;0.50;;;13.20;99.90;;;;;;5031630;28;20048;-59
2022/05/07 01:37:03;;;;;;;0.73;0.43;;;13.20;99.90;;;;;;5037844;28;20159;-59
2022/05/07 01:39:30;;;;;;;0.50;0.47;;;13.10;99.90;;;;;;5014866;28;20056;-59
2022/05/07 01:41:56;;;;;;;0.40;0.30;;;13.20;99.90;;;;;;5044512;28;20083;-59
2022/05/07 01:44:23;;;;;;;0.60;0.43;;;13.30;99.90;;;;;;5044039;28;20310;-59
2022/05/07 01:49:35;;;;;;;0.50;0.40;;;13.20;99.90;;;;;;5043799;28;20127;-58
2022/05/07 01:52:02;;;;;;;0.57;0.57;;;13.30;99.90;;;;;;5044613;28;20049;-59
2022/05/07 01:54:29;;;;;;;0.75;0.60;;;13.20;99.90;;;;;;5033119;28;20145;-59
2022/05/07 01:56:55;;;;;;;0.70;0.52;;;13.20;99.90;;;;;;5044101;28;20044;-59
2022/05/07 01:59:22;;;;;;;0.50;0.50;;;13.20;99.90;;;;;;5013441;28;20076;-58
2022/05/07 02:01:49;;;;;;;0.65;0.50;;;13.20;99.90;;;;;;5028240;28;20132;-58
2022/05/07 02:04:16;;;;;;;1.23;0.80;;;13.30;99.90;;;;;;5041749;28;20048;-59
2022/05/07 02:06:42;;;;;;;0.90;0.52;;;13.20;99.90;;;;;;5030884;28;20373;-59
2022/05/07 02:09:10;;;;;;;0.77;0.60;;;13.20;99.90;;;;;;5026060;28;20510;-59
2022/05/07 02:11:36;;;;;;;0.55;0.55;;;13.20;99.90;;;;;;5012619;28;20080;-58
2022/05/07 02:14:03;;;;;;;0.60;0.60;;;13.30;99.90;;;;;;5027696;28;20136;-58
2022/05/07 02:16:31;;;;;;;1.38;0.73;;;13.20;99.90;;;;;;5027428;28;20053;-59
2022/05/07 02:18:58;;;;;;;0.63;0.60;;;13.30;99.90;;;;;;5026885;28;20040;-59
2022/05/07 02:21:25;;;;;;;1.02;0.70;;;13.30;99.90;;;;;;5024781;28;20049;-59
2022/05/07 02:23:52;;;;;;;0.50;0.50;;;13.30;99.90;;;;;;5037594;28;20048;-59
2022/05/07 02:26:19;;;;;;;0.63;0.40;;;13.30;99.90;;;;;;5042760;28;20049;-58
2022/05/07 02:28:45;;;;;;;0.60;0.47;;;13.30;99.90;;;;;;5025102;28;20479;-58
2022/05/07 02:31:12;;;;;;;0.63;0.52;;;13.40;99.90;;;;;;5026404;28;20137;-58
2022/05/07 02:33:39;;;;;;;1.05;0.60;;;13.30;99.90;;;;;;5031469;28;20076;-59
2022/05/07 02:36:06;;;;;;;0.98;0.50;;;13.40;99.90;;;;;;5043473;28;20137;-59
2022/05/07 02:38:32;;;;;;;1.15;0.68;;;13.40;99.90;;;;;;5028750;28;20144;-58
2022/05/07 02:43:44;;;;;;;0.68;0.45;;;13.40;99.90;;;;;;5040051;28;20127;-58
2022/05/07 02:46:11;;;;;;;1.30;0.47;;;13.40;99.90;;;;;;5022061;28;20141;-58
2022/05/07 02:48:38;;;;;;;0.47;0.40;;;13.40;99.90;;;;;;5023832;28;20041;-59
2022/05/07 02:51:05;;;;;;;0.85;0.65;;;13.50;99.90;;;;;;5027718;28;20124;-59
2022/05/07 02:53:31;;;;;;;0.40;0.40;;;13.50;99.90;;;;;;5034754;28;20468;-59
2022/05/07 02:55:58;;;;;;;0.93;0.40;;;13.50;99.90;;;;;;5043396;28;20140;-59
2022/05/07 02:58:25;;;;;;;0.43;0.40;;;13.50;99.90;;;;;;5042110;28;20132;-60
2022/05/07 03:00:52;;;;;;;0.82;0.50;;;13.50;99.90;;;;;;5038707;28;20479;-59
2022/05/07 03:03:19;;;;;;;0.63;0.45;;;13.50;99.90;;;;;;5014267;28;20124;-59
2022/05/07 03:05:49;;;;;;;0.30;0.30;;;13.50;99.90;;;;;;5034302;28;20167;-59
2022/05/07 03:08:16;;;;;;;0.52;0.50;;;13.60;99.90;;;;;;5025873;28;20045;-59
2022/05/07 03:10:43;;;;;;;0.73;0.50;;;13.60;99.90;;;;;;5007190;28;20140;-59
2022/05/07 03:13:09;;;;;;;0.50;0.43;;;13.60;99.90;;;;;;5031361;28;20059;-59
2022/05/07 03:15:36;;;;;;;0.40;0.40;;;13.60;99.90;;;;;;5042354;28;20053;-59
2022/05/07 03:18:03;;;;;;;0.57;0.57;;;13.60;99.90;;;;;;5042775;28;20056;-59
2022/05/07 03:20:30;;;;;;;0.70;0.50;;;13.60;99.90;;;;;;5041780;28;20546;-59
2022/05/07 03:22:58;;;;;;;0.85;0.50;;;13.60;99.90;;;;;;5033255;28;20077;-59
2022/05/07 03:25:25;;;;;;;0.45;0.45;;;13.60;99.90;;;;;;5035862;28;20709;-59
2022/05/07 03:27:52;;;;;;;0.30;0.30;;;13.60;99.90;;;;;;5025401;28;20046;-59
2022/05/07 03:30:18;;;;;;;0.38;0.38;;;13.70;99.90;;;;;;5041578;28;20526;-58
2022/05/07 03:32:45;;;;;;;0.40;0.40;;;13.70;99.90;;;;;;5017604;28;20037;-58
2022/05/07 03:35:12;;;;;;;0.50;0.47;;;13.70;99.90;;;;;;5031438;28;20143;-59
2022/05/07 03:37:38;;;;;;;0.45;0.43;;;13.70;99.90;;;;;;5040203;28;20131;-58
2022/05/07 03:40:06;;;;;;;0.85;0.50;;;13.70;99.90;;;;;;5023954;28;20053;-59
2022/05/07 03:42:33;;;;;;;0.52;0.38;;;13.70;99.90;;;;;;5027943;28;20126;-59
2022/05/07 03:45:01;;;;;;;0.28;0.28;;;13.70;99.90;;;;;;5042263;28;20098;-59
2022/05/07 03:47:27;;;;;;;0.30;0.30;;;13.70;99.90;;;;;;5042163;28;20053;-59
2022/05/07 03:49:54;;;;;;;0.73;0.45;;;13.80;99.90;;;;;;5030144;28;20041;-59
2022/05/07 03:55:07;;;;;;;0.77;0.57;;;13.80;99.90;;;;;;5042119;28;20137;-58
2022/05/07 03:57:34;;;;;;;0.75;0.50;;;13.70;99.90;;;;;;5032462;28;20125;-59
2022/05/07 04:00:01;;;;;;;1.27;0.47;;;13.70;99.90;;;;;;5031932;28;20053;-59
2022/05/07 04:02:32;;;;;;;0.77;0.50;;;13.70;99.90;;;;;;5025664;28;20042;-58
2022/05/07 04:04:58;;;;;;;0.82;0.50;;;13.70;99.90;;;;;;5033567;28;20366;-59
2022/05/07 04:07:25;;;;;;;0.35;0.32;;;13.70;99.90;;;;;;5042300;28;20132;-59
2022/05/07 04:09:54;;;;;;;0.47;0.47;;;13.70;99.90;;;;;;5042028;28;20055;-59
2022/05/07 04:12:22;;;;;;;0.47;0.40;;;13.70;99.90;;;;;;5030869;28;20102;-59
2022/05/07 04:14:49;;;;;;;0.60;0.50;;;13.70;99.90;;;;;;5039203;28;20132;-58
2022/05/07 04:17:16;;;;;;;0.47;0.47;;;13.70;99.90;;;;;;5038166;28;20559;-61
2022/05/07 04:19:43;;;;;;;0.40;0.40;;;13.80;99.90;;;;;;5034223;28;20120;-58
2022/05/07 04:22:09;;;;;;;0.60;0.50;;;13.80;99.90;;;;;;5036362;28;20053;-61
2022/05/07 04:24:36;;;;;;;0.60;0.30;;;13.80;99.90;;;;;;5036881;28;20136;-58
2022/05/07 04:27:04;;;;;;;0.85;0.60;;;13.80;99.90;;;;;;5041631;28;20053;-59
2022/05/07 04:29:30;;;;;;;0.88;0.40;;;13.80;99.90;;;;;;5030918;28;20137;-59
2022/05/07 04:31:57;;;;;;;0.50;0.50;;;13.80;99.90;;;;;;5023688;28;20060;-58
2022/05/07 04:34:26;;;;;;;0.47;0.47;;;13.80;99.90;;;;;;5028802;28;20131;-58
2022/05/07 04:36:53;;;;;;;0.63;0.40;;;13.80;99.90;;;;;;5041551;28;20037;-58
2022/05/07 04:39:20;;;;;;;0.65;0.65;;;13.70;99.90;;;;;;5041325;28;20870;-58
2022/05/07 04:41:47;;;;;;;0.70;0.65;;;13.80;99.90;;;;;;5041693;28;20053;-58
2022/05/07 04:44:13;;;;;;;1.15;0.70;;;13.80;99.90;;;;;;5044903;28;20076;-58
2022/05/07 04:46:40;;;;;;;1.15;0.70;;;13.80;99.90;;;;;;5038226;28;20136;-59
2022/05/07 04:49:07;;;;;;;1.05;0.63;;;13.80;99.90;;;;;;5026934;28;20049;-60
2022/05/07 04:51:34;;;;;;;0.73;0.60;;;13.80;99.90;;;;;;5027475;28;20648;-59
2022/05/07 04:54:07;;;;;;;0.52;0.45;;;13.80;99.90;;;;;;5033910;28;20154;-58
2022/05/07 04:56:34;;;;;;;1.52;0.80;;;13.80;99.90;;;;;;5045234;28;20255;-58
2022/05/07 04:59:01;;;;;;;1.02;0.80;;;13.80;99.90;;;;;;5035665;28;20053;-57
2022/05/07 05:01:28;;;;;;;0.90;0.77;;;13.80;99.90;;;;;;5026910;28;20053;-58
2022/05/07 05:03:54;;;;;;;1.55;0.65;;;13.80;99.90;;;;;;5037371;28;20048;-58
2022/05/07 05:06:21;;;;;;;0.93;0.80;;;13.70;99.90;;;;;;5035233;28;20077;-58
2022/05/07 05:08:48;;;;;;;1.00;0.80;;;13.70;99.90;;;;;;5040766;28;20142;-59
2022/05/07 05:11:15;;;;;;;0.60;0.60;;;13.80;99.90;;;;;;5039863;28;20153;-59
2022/05/07 05:13:41;;;;;;;1.00;0.60;;;13.80;99.90;;;;;;5032449;28;20474;-59
2022/05/07 05:16:08;;;;;;;0.90;0.70;;;13.80;99.90;;;;;;5039622;28;20083;-58
2022/05/07 05:18:35;;;;;;;0.50;0.50;;;13.80;99.90;;;;;;5031485;28;20091;-59
2022/05/07 05:21:02;;;;;;;0.73;0.57;;;13.90;99.90;;;;;;5031079;28;20171;-57
2022/05/07 05:23:29;;;;;;;0.63;0.63;;;13.90;99.90;;;;;;5033874;28;20089;-59
2022/05/07 05:25:56;;;;;;;0.88;0.60;;;13.90;99.90;;;;;;5030107;28;20610;-60
2022/05/07 05:28:23;;;;;;;1.27;0.70;;;13.90;99.90;;;;;;5033264;28;20053;-60
2022/05/07 05:30:56;;;;;;;0.85;0.55;;;13.90;99.90;;;;;;5026544;28;20071;-60
2022/05/07 05:33:23;;;;;;;0.80;0.60;;;13.90;99.90;;;;;;5021461;28;20071;-59
2022/05/07 05:35:49;;;;;;;0.98;0.90;;;13.90;99.90;;;;;;5030702;28;20113;-59
2022/05/07 05:38:16;;;;;;;1.20;0.90;;;13.90;99.90;;;;;;5033047;28;20069;-63
2022/05/07 05:40:43;;;;;;;0.68;0.65;;;13.90;99.90;;;;;;5042834;28;20136;-59
2022/05/07 05:43:10;;;;;;;0.60;0.60;;;14.00;99.90;;;;;;5042581;28;20061;-59
2022/05/07 05:45:37;;;;;;;0.70;0.70;;;14.00;99.90;;;;;;5034624;28;20100;-59
2022/05/07 05:48:05;;;;;;;0.65;0.65;;;13.90;99.90;;;;;;5042429;28;20068;-58
2022/05/07 05:50:31;;;;;;;0.80;0.80;;;14.00;99.90;;;;;;5045066;28;20507;-58
2022/05/07 05:52:58;;;;;;;0.65;0.57;;;14.00;99.90;;;;;;5043634;28;20064;-59
2022/05/07 05:55:25;;;;;;;1.10;0.88;;;14.00;99.90;;;;;;5043385;28;20079;-59
2022/05/07 05:57:52;;;;;;;1.25;0.70;;;14.00;99.90;;;;;;5045162;28;20144;-58
2022/05/07 06:00:19;;;;;;;1.40;0.80;;;14.00;99.90;;;;;;5019186;28;20141;-59
2022/05/07 06:02:45;;;;;;;1.10;0.73;;;13.90;99.90;;;;;;5018436;28;20603;-59
2022/05/07 06:05:12;;;;;;;0.90;0.90;;;13.90;99.90;;;;;;5017324;28;20132;-58
2022/05/07 06:07:39;;;;;;;1.40;1.30;;;13.90;99.90;;;;;;5017916;28;20589;-59
2022/05/07 06:10:06;;;;;;;1.20;1.10;;;13.90;99.90;;;;;;5020691;28;20096;-58
2022/05/07 06:12:33;;;;;;;1.40;1.15;;;13.90;99.90;;;;;;5019417;28;20073;-59
2022/05/07 06:14:59;;;;;;;1.63;1.20;;;13.90;99.90;;;;;;5014471;28;20049;-59
2022/05/07 06:17:26;;;;;;;1.38;1.08;;;13.90;99.90;;;;;;5020667;28;20041;-59
2022/05/07 06:19:53;;;;;;;1.23;1.10;;;14.00;99.90;;;;;;5009989;28;20041;-60
2022/05/07 06:22:20;;;;;;;1.63;1.20;;;14.00;99.90;;;;;;5012048;28;20050;-59
2022/05/07 06:27:32;;;;;;;1.35;0.93;;;14.00;99.90;;;;;;5008975;28;20125;-59
2022/05/07 06:30:03;;;;;;;1.60;1.38;;;14.00;99.90;;;;;;5020072;28;20136;-58
2022/05/07 06:32:38;;;;;;;1.70;1.50;;;14.00;99.90;;;;;;5016343;28;20085;-59
2022/05/07 06:35:05;;;;;;;1.77;1.42;;;14.00;99.90;;;;;;5020134;28;20453;-59
2022/05/07 06:37:32;;;;;;;1.52;1.42;;;14.00;99.90;;;;;;5025327;28;20132;-59
2022/05/07 06:39:59;;;;;;;1.30;1.20;;;14.00;99.90;;;;;;5018938;28;20489;-59
2022/05/07 06:42:27;;;;;;;1.60;1.23;;;14.10;99.90;;;;;;5017526;28;20054;-59
2022/05/07 06:44:53;;;;;;;1.83;1.30;;;14.20;99.90;;;;;;5025155;28;20156;-59
2022/05/07 06:47:20;;;;;;;1.33;1.20;;;14.20;99.90;;;;;;5016847;28;20117;-58
2022/05/07 06:49:47;;;;;;;1.75;1.58;;;14.30;99.90;;;;;;5015291;28;20075;-57
2022/05/07 06:52:14;;;;;;;1.98;1.10;;;14.30;99.90;;;;;;5015449;28;20099;-59
2022/05/07 06:54:41;;;;;;;1.50;1.13;;;14.30;99.90;;;;;;5015557;28;20056;-58
2022/05/07 06:57:08;;;;;;;1.33;1.15;;;14.40;99.90;;;;;;5025453;28;20042;-58
2022/05/07 06:59:36;;;;;;;1.55;1.30;;;14.40;99.90;;;;;;5024701;28;20049;-58
2022/05/07 07:02:03;;;;;;;1.67;1.40;;;14.40;99.90;;;;;;5041873;28;20053;-58
2022/05/07 07:04:30;;;;;;;1.35;1.17;;;14.30;99.90;;;;;;5041972;28;20132;-58
2022/05/07 07:06:57;;;;;;;1.35;1.02;;;14.40;99.90;;;;;;5043036;28;20055;-58
2022/05/07 07:09:24;;;;;;;3.03;2.58;;;14.50;99.90;;;;;;5045720;28;20132;-58
2022/05/07 07:11:50;;;;;;;1.70;1.48;;;14.70;99.90;;;;;;5045357;28;20135;-58
2022/05/07 07:14:17;;;;;;;2.10;1.60;;;14.80;99.90;;;;;;5044959;28;20095;-58
2022/05/07 07:16:44;;;;;;;2.10;1.40;;;14.90;99.90;;;;;;5046375;28;20149;-58
2022/05/07 07:19:11;;;;;;;1.35;1.25;;;15.00;99.90;;;;;;5027605;28;20049;-59
2022/05/07 07:21:38;;;;;;;1.30;1.08;;;15.10;99.90;;;;;;5044894;28;20155;-59
2022/05/07 07:24:05;;;;;;;1.52;1.42;;;15.30;99.90;;;;;;5044354;28;21000;-58
2022/05/07 07:26:34;;;;;;;1.20;1.10;;;15.40;99.90;;;;;;5045094;28;20060;-58
2022/05/07 07:29:01;;;;;;;1.80;1.27;;;15.50;99.90;;;;;;5044852;28;20135;-58
2022/05/07 07:31:28;;;;;;;2.20;1.80;;;15.50;99.90;;;;;;5044644;28;20068;-58
2022/05/07 07:33:54;;;;;;;2.95;2.20;;;15.50;99.90;;;;;;5044176;28;20100;-58
2022/05/07 07:36:21;;;;;;;1.77;1.63;;;15.60;99.90;;;;;;5045622;28;20119;-57
2022/05/07 07:38:48;;;;;;;2.25;1.58;;;15.70;99.90;;;;;;5042102;28;20155;-58
2022/05/07 07:41:15;;;;;;;2.50;1.95;;;15.80;99.90;;;;;;5045384;28;20160;-58
2022/05/07 07:43:41;;;;;;;2.25;1.73;;;15.90;99.90;;;;;;5044399;28;20056;-58
2022/05/07 07:48:54;;;;;;;1.65;1.33;;;16.10;99.90;;;;;;5042165;28;20154;-58
2022/05/07 07:51:21;;;;;;;1.48;1.30;;;16.10;99.90;;;;;;5045236;28;20060;-58
2022/05/07 07:53:48;;;;;;;1.40;1.00;;;16.10;99.90;;;;;;5044749;28;20055;-58
2022/05/07 07:56:16;;;;;;;1.40;1.20;;;16.30;99.90;;;;;;5043350;28;20110;-58
2022/05/07 07:58:42;;;;;;;0.88;0.82;;;16.50;99.90;;;;;;5013304;28;20056;-60
2022/05/07 08:01:09;;;;;;;1.40;1.20;;;16.60;99.90;;;;;;5038845;28;20139;-59
2022/05/07 08:03:36;;;;;;;2.58;1.55;;;16.60;99.90;;;;;;5033313;28;20105;-58
2022/05/07 08:06:03;;;;;;;1.85;1.70;;;16.60;99.90;;;;;;5023643;28;20437;-60
2022/05/07 08:14:00;;;;;;;0.75;0.70;;;16.50;99.90;;;;;;5040749;28;20064;-59
2022/05/07 08:16:27;;;;;;;1.20;1.10;;;16.40;99.90;;;;;;5040671;28;20085;-58
2022/05/07 08:18:54;;;;;;;1.25;1.05;;;16.30;99.90;;;;;;5022178;28;20049;-58
2022/05/07 08:21:21;;;;;;;1.55;1.20;;;16.20;99.90;;;;;;5041145;28;20147;-59
2022/05/07 08:23:48;;;;;;;1.25;1.15;;;16.20;99.90;;;;;;5041117;28;20132;-60
2022/05/07 08:26:15;;;;;;;1.20;1.10;;;16.10;99.90;;;;;;5041244;28;20401;-59
2022/05/07 08:28:41;;;;;;;1.83;1.20;;;16.10;99.90;;;;;;5040356;28;20100;-59
2022/05/07 08:31:10;;;;;;;1.10;0.95;;;16.10;99.90;;;;;;5010897;28;20145;-59
2022/05/07 08:33:40;;;;;;;1.33;1.00;;;16.00;99.90;;;;;;5040408;28;20045;-59
2022/05/07 08:36:08;;;;;;;2.17;1.25;;;15.90;99.90;;;;;;5037743;28;20045;-59
2022/05/07 08:38:34;;;;;;;1.40;1.10;;;15.80;99.90;;;;;;5023491;28;20151;-59
2022/05/07 08:41:01;;;;;;;1.85;1.30;;;15.70;99.90;;;;;;5033189;28;20069;-59
2022/05/07 08:43:37;;;;;;;1.95;1.60;;;15.60;99.90;;;;;;5032711;28;20055;-59
2022/05/07 08:46:12;;;;;;;2.13;1.60;;;15.40;99.90;;;;;;5033769;28;20419;-59
2022/05/07 08:48:41;;;;;;;2.38;2.17;;;15.30;99.90;;;;;;5039852;28;20049;-59
2022/05/07 08:51:08;;;;;;;2.42;2.22;;;15.00;99.90;;;;;;5041178;28;20072;-59
2022/05/07 08:53:34;;;;;;;2.10;1.85;;;14.90;99.90;;;;;;5041028;28;20444;-59
2022/05/07 08:56:02;;;;;;;1.67;1.58;;;14.80;99.90;;;;;;5041674;28;20480;-58
2022/05/07 08:58:29;;;;;;;1.98;1.77;;;14.60;99.90;;;;;;5023354;28;20053;-58
2022/05/07 09:00:57;;;;;;;1.30;1.20;;;14.60;99.90;;;;;;5041058;28;20143;-59
2022/05/07 09:03:24;;;;;;;1.30;1.00;;;14.60;99.90;;;;;;5041724;28;20140;-58
2022/05/07 09:05:51;;;;;;;1.02;0.90;;;14.70;99.90;;;;;;5040600;28;20960;-59
2022/05/07 09:08:24;;;;;;;0.82;0.82;;;14.80;99.90;;;;;;5023473;28;20147;-59
2022/05/07 09:10:53;;;;;;;1.00;0.60;;;15.00;99.90;;;;;;5041464;28;20162;-60
2022/05/07 09:13:19;;;;;;;0.73;0.57;;;15.20;99.90;;;;;;5040785;28;20218;-59
2022/05/07 09:15:53;;;;;;;0.82;0.70;;;15.30;99.90;;;;;;5040905;28;20521;-59
2022/05/07 09:18:20;;;;;;;0.57;0.52;;;15.40;99.90;;;;;;5024032;28;20060;-59
2022/05/07 09:24:01;;;;;;;0.93;0.68;;;15.50;99.90;;;;;;5041109;28;20148;-59
2022/05/07 09:26:31;;;;;;;0.82;0.70;;;15.60;99.90;;;;;;5041078;28;20131;-59
2022/05/07 09:29:00;;;;;;;1.48;0.73;;;15.60;99.90;;;;;;5042940;28;20045;-59
2022/05/07 09:31:29;;;;;;;0.82;0.75;;;15.60;99.90;;;;;;5044944;28;20140;-58
2022/05/07 09:33:55;;;;;;;0.85;0.80;;;15.60;99.90;;;;;;5043942;28;20099;-59
2022/05/07 09:36:23;;;;;;;1.00;0.90;;;15.70;99.90;;;;;;5044436;28;20645;-59
2022/05/07 09:39:00;;;;;;;0.75;0.60;;;15.70;99.90;;;;;;5044775;28;20143;-59
2022/05/07 09:41:26;;;;;;;1.00;0.90;;;15.90;99.90;;;;;;5044220;28;20088;-60
2022/05/07 09:43:53;;;;;;;0.90;0.80;;;16.00;99.90;;;;;;5044095;28;20080;-59
2022/05/07 09:46:20;;;;;;;0.95;0.80;;;16.20;99.90;;;;;;5026828;28;20052;-58
2022/05/07 09:48:47;;;;;;;1.00;0.90;;;16.40;99.90;;;;;;5033706;28;20045;-59
2022/05/07 09:51:14;;;;;;;0.70;0.70;;;16.50;99.90;;;;;;5039841;28;20116;-59
2022/05/07 09:59:13;;;;;;;0.80;0.80;;;16.60;99.90;;;;;;5022157;28;20063;-59
2022/05/07 10:01:48;;;;;;;1.23;0.98;;;16.80;99.90;;;;;;5031371;28;20144;-59
2022/05/07 10:04:40;;;;;;;1.08;0.93;;;16.90;99.90;;;;;;5020874;28;20091;-59
2022/05/07 10:07:25;;;;;;;0.90;0.82;;;17.10;99.90;;;;;;5036540;28;20148;-59
2022/05/07 10:10:13;;;;;;;0.70;0.70;;;17.20;99.90;;;;;;5042751;28;20045;-59
2022/05/07 10:12:47;;;;;;;0.80;0.75;;;17.30;99.90;;;;;;5040267;28;20095;-58
2022/05/07 10:15:20;;;;;;;1.00;0.90;;;17.50;99.90;;;;;;5036857;28;20613;-59
2022/05/07 10:17:56;;;;;;;;;;;17.70;99.90;;;;;;5039503;28;20128;-59
2022/05/07 10:20:23;;;;;;;0.63;0.63;;;17.80;99.90;;;;;;5040629;28;19967;-59
2022/05/07 10:22:56;;;;;;;1.08;0.93;;;17.90;99.90;;;;;;5043109;28;20140;-59
2022/05/07 10:25:23;;;;;;;0.95;0.80;;;18.00;99.90;;;;;;5035702;28;20140;-60
2022/05/07 10:27:50;;;;;;;1.10;0.90;;;18.10;99.90;;;;;;5037269;28;20674;-60
2022/05/07 10:30:22;;;;;;;0.90;0.77;;;18.10;99.90;;;;;;5040710;28;20437;-59
2022/05/07 10:32:59;;;;;;;1.15;0.80;;;18.20;99.90;;;;;;5034770;28;20084;-59
2022/05/07 10:35:52;;;;;;;0.63;0.63;;;18.20;99.90;;;;;;5040035;28;20045;-59
2022/05/07 10:38:37;;;;;;;0.98;0.70;;;18.30;99.90;;;;;;5038273;28;20141;-59
2022/05/07 10:41:04;;;;;;;0.65;0.65;;;18.40;99.90;;;;;;5038555;28;20120;-59
2022/05/07 10:43:36;;;;;;;1.05;0.80;;;18.40;99.90;;;;;;5039864;28;20152;-61
2022/05/07 10:46:07;;;;;;;1.20;0.90;;;18.40;99.90;;;;;;5037096;28;20056;-59
2022/05/07 10:48:50;;;;;;;0.75;0.75;;;18.30;99.90;;;;;;5035326;28;20106;-61
2022/05/07 10:51:17;;;;;;;;;;;18.20;99.90;;;;;;5023747;28;20045;-58
2022/05/07 10:53:44;;;;;;;1.25;1.15;;;18.00;99.90;;;;;;5042871;28;19921;-61
2022/05/07 10:56:21;;;;;;;1.52;1.40;;;17.90;99.90;;;;;;5042946;28;20171;-58
2022/05/07 10:58:50;;;;;;;2.10;1.90;;;17.80;99.90;;;;;;5041314;28;20037;-58
2022/05/07 11:01:17;;;;;;;1.95;1.85;;;17.90;99.90;;;;;;5042573;28;20057;-61
2022/05/07 11:03:44;;;;;;;1.98;1.77;;;18.10;99.90;;;;;;5041714;28;20197;-61
2022/05/07 11:06:11;;;;;;;2.10;1.90;;;18.20;99.90;;;;;;5041024;28;20124;-59
2022/05/07 11:08:49;;;;;;;2.22;2.03;;;18.40;99.90;;;;;;5043017;28;20381;-61
2022/05/07 11:11:16;;;;;;;2.25;2.05;;;18.60;99.90;;;;;;5034957;28;20055;-59
2022/05/07 11:13:53;;;;;;;2.70;2.50;;;18.70;99.90;;;;;;5022526;28;20149;-58
2022/05/07 11:16:21;;;;;;;2.40;2.20;;;19.00;99.90;;;;;;5030264;28;20053;-58
2022/05/07 11:18:52;;;;;;;2.50;2.30;;;19.30;99.90;;;;;;5033725;28;20072;-63
2022/05/07 11:21:23;;;;;;;2.50;2.30;;;19.50;99.90;;;;;;5024418;28;20477;-58
2022/05/07 11:23:56;;;;;;;2.88;2.67;;;19.70;99.90;;;;;;5031585;28;20045;-59
2022/05/07 11:26:23;;;;;;;4.10;3.70;;;19.70;99.90;;;;;;5014096;28;20103;-58
2022/05/07 11:28:50;;;;;;;3.92;3.63;;;19.60;99.90;;;;;;5029806;28;20049;-59
2022/05/07 11:31:29;;;;;;;4.90;4.50;;;19.60;99.90;;;;;;5035662;28;20072;-59
2022/05/07 11:34:10;;;;;;;4.50;4.20;;;19.70;99.90;;;;;;5033753;28;20045;-59
2022/05/07 11:36:37;;;;;;;5.15;4.75;;;19.60;99.90;;;;;;5032221;28;20121;-56
2022/05/07 11:39:08;;;;;;;5.07;4.68;;;19.60;99.90;;;;;;5034584;28;20086;-62
2022/05/07 11:41:35;;;;;;;5.32;4.93;;;19.60;99.90;;;;;;5032560;28;20655;-59
2022/05/07 11:47:22;;;;;;;5.60;5.05;;;18.60;99.90;;;;;;5031228;28;20080;-59
2022/05/07 11:50:07;;;;;;;5.30;4.90;;;18.10;99.90;;;;;;5030147;28;20041;-59
2022/05/07 11:52:35;;;;;;;4.85;4.45;;;17.80;99.90;;;;;;5030710;28;20052;-59
2022/05/07 11:55:05;;;;;;;4.80;4.40;;;17.80;99.90;;;;;;5035173;28;20122;-59
2022/05/07 11:57:33;;;;;;;4.10;3.80;;;17.70;99.90;;;;;;5033847;28;20071;-59
2022/05/07 12:00:17;;;;;;;4.00;3.70;;;17.70;99.90;;;;;;5028993;28;20088;-60
2022/05/07 12:02:56;;;;;;;4.95;4.55;;;17.80;99.90;;;;;;5028000;28;20110;-60
2022/05/07 12:05:24;;;;;;;4.70;4.30;;;17.70;99.90;;;;;;5029915;28;20046;-60
2022/05/07 12:07:52;;;;;;;4.53;4.13;;;17.70;99.90;;;;;;5034859;28;20139;-60
2022/05/07 12:10:19;;;;;;;4.22;3.83;;;18.00;99.90;;;;;;5033561;28;20052;-59
2022/05/07 12:12:47;;;;;;;4.00;3.70;;;18.00;99.90;;;;;;5028847;28;20124;-60
2022/05/07 12:15:14;;;;;;;2.80;2.60;;;18.30;99.90;;;;;;5039653;28;20132;-60
2022/05/07 12:17:53;;;;;;;3.47;3.17;;;18.50;99.90;;;;;;5009680;28;20128;-60
2022/05/07 12:20:21;;;;;;;3.40;3.10;;;18.50;99.90;;;;;;5024007;28;20053;-59
2022/05/07 12:31:04;;;;;;;2.20;1.90;;;19.20;99.90;;;;;;5029089;28;20136;-60
2022/05/07 12:33:33;;;;;;;1.70;1.60;;;18.80;99.90;;;;;;5035823;28;20110;-59
2022/05/07 12:35:59;;;;;;;1.90;1.58;;;18.60;99.90;;;;;;5025865;28;20077;-59
2022/05/07 12:38:27;;;;;;;1.90;1.70;;;18.50;99.90;;;;;;5040460;28;20049;-59
2022/05/07 12:40:54;;;;;;;1.30;1.20;;;18.50;99.90;;;;;;5039332;28;20068;-59
2022/05/07 12:43:21;;;;;;;1.70;1.33;;;18.60;99.90;;;;;;5039916;28;20111;-60
2022/05/07 12:45:49;;;;;;;1.20;1.10;;;18.80;99.90;;;;;;5038072;28;20092;-59
2022/05/07 12:48:17;;;;;;;1.20;1.10;;;19.00;99.90;;;;;;5022896;28;20049;-59
2022/05/07 12:50:49;;;;;;;1.50;1.40;;;19.20;99.90;;;;;;5037827;28;20095;-60
2022/05/07 12:53:16;;;;;;;1.42;1.20;;;19.30;99.90;;;;;;5028512;28;20049;-59
2022/05/07 12:55:43;;;;;;;1.40;1.30;;;19.40;99.90;;;;;;5037297;28;20136;-59
2022/05/07 12:58:11;;;;;;;1.40;1.30;;;19.40;99.90;;;;;;5041399;28;20045;-60
2022/05/07 13:00:38;;;;;;;1.75;1.60;;;19.70;99.90;;;;;;5035416;28;20081;-60
2022/05/07 13:03:09;;;;;;;1.65;1.40;;;19.90;99.90;;;;;;5018424;28;20050;-61
2022/05/07 13:05:37;;;;;;;1.35;1.20;;;20.20;99.90;;;;;;5042350;28;20140;-61
2022/05/07 13:08:20;;;;;;;1.55;1.45;;;20.50;99.90;;;;;;5036670;28;20101;-61
2022/05/07 13:10:47;;;;;;;1.70;1.58;;;21.10;99.90;;;;;;5041115;28;20052;-60
2022/05/07 13:13:17;;;;;;;1.27;1.15;;;21.60;99.90;;;;;;5041351;28;20096;-60
2022/05/07 13:15:43;;;;;;;1.27;1.15;;;22.20;99.90;;;;;;5039809;28;20102;-60
2022/05/07 13:18:10;;;;;;;1.73;1.45;;;22.80;99.90;;;;;;5029168;28;20441;-61
2022/05/07 13:20:38;;;;;;;1.38;1.10;;;22.40;99.90;;;;;;5043975;28;20546;-61
2022/05/07 13:23:05;;;;;;;1.85;1.70;;;22.00;99.90;;;;;;5042879;28;20095;-60
2022/05/07 13:25:32;;;;;;;2.60;2.40;;;21.20;99.90;;;;;;5044310;28;20135;-60
2022/05/07 13:27:59;;;;;;;2.88;2.67;;;20.30;99.90;;;;;;5044118;28;20060;-62
2022/05/07 13:30:26;;;;;;;3.33;2.78;;;19.70;99.90;;;;;;5044029;28;20044;-61
2022/05/07 13:32:53;;;;;;;3.20;2.90;;;19.40;99.90;;;;;;5044207;28;20128;-62